This is the latest recevied weather packets stored in our database for station/object KD7AWQ. If no packets are shown the sender has not sent any weather packets the latest 10 day(s).
| Time | Temp. | Humidity | Pressure | Rain* | Wind** | Luminosity | Snow |
|---|---|---|---|---|---|---|---|
| 1788215610 | 22.22° C | 57% | 1188.7 hPa | 0 mm | - | 85 W/m² | - |
| 1788215307 | 22.22° C | 55% | 1188.6 hPa | 0 mm | - | 80 W/m² | - |
| 1788215002 | 21.67° C | 56% | 1188.4 hPa | 0 mm | - | 96 W/m² | - |
| 1788214702 | 21.67° C | 61% | 1188.6 hPa | 0 mm | - | 131 W/m² | - |
| 1788214398 | 22.22° C | 59% | 1188.6 hPa | 0 mm | - | 125 W/m² | - |
| 1788214092 | 22.22° C | 56% | 1189 hPa | 0 mm | - | 108 W/m² | - |
| 1788213787 | 23.89° C | 49% | 1189.5 hPa | 0 mm | - | 110 W/m² | - |
| 1788213482 | 23.89° C | 44% | 1189.2 hPa | 0 mm | - | 136 W/m² | - |
| 1788213179 | 23.89° C | 44% | 1189.5 hPa | 0 mm | - | 152 W/m² | - |
| 1788212875 | 24.44° C | 45% | 1189.7 hPa | 0 mm | - | 157 W/m² | - |
| 1788212571 | 24.44° C | 44% | 1189.7 hPa | 0 mm | - | 148 W/m² | - |
| 1788212267 | 23.89° C | 44% | 1190 hPa | 0 mm | - | 126 W/m² | - |
| 1788211958 | 23.89° C | 46% | 1190.1 hPa | 0 mm | - | 106 W/m² | - |
| 1788211658 | 23.89° C | 44% | 1190.1 hPa | 0 mm | - | 104 W/m² | - |
| 1788211355 | 23.89° C | 45% | 1190.3 hPa | 0 mm | - | 124 W/m² | - |
| 1788211053 | 24.44° C | 46% | 1190.3 hPa | 0 mm | - | 176 W/m² | - |
| 1788210749 | 25° C | 43% | 1190.1 hPa | 0 mm | - | 247 W/m² | - |
| 1788210449 | 24.44° C | 43% | 1190.4 hPa | 0 mm | - | 250 W/m² | - |
| 1788210145 | 24.44° C | 44% | 1190.4 hPa | 0 mm | - | 236 W/m² | - |
| 1788209844 | 24.44° C | 46% | 1190.4 hPa | 0 mm | - | 247 W/m² | - |
| 1788209540 | 24.44° C | 45% | 1190.4 hPa | 0 mm | - | 310 W/m² | - |
| 1788209235 | 23.89° C | 51% | 1190.4 hPa | 0 mm | - | 306 W/m² | - |
| 1788208934 | 23.33° C | 51% | 1190.7 hPa | 0 mm | - | 285 W/m² | - |
| 1788208628 | 22.78° C | 51% | 1190.8 hPa | 0 mm | - | 218 W/m² | - |
| 1788208322 | 22.78° C | 51% | 1190.7 hPa | 0 mm | - | 128 W/m² | - |
* Rain latest hour (hover to see other rain measurements)
** Current wind speed in m/s (hover to see current wind gust speed)